Time;durP1;ratioP1;P1;durP2;ratioP2;P2;SDS_P1;SDS_P2;PMS_P1;PMS_P2;Temp;Humidity;BMP_temperature;BMP_pressure;BME280_temperature;BME280_humidity;BME280_pressure;Samples;Min_cycle;Max_cycle;Signal;HPM_P1;HPM_P2
2022/04/26 03:36:59;;;;;;;5.28;3.42;;;;;;;6.93;82.28;101388.50;4838492;29;20124;-78
2022/04/26 03:39:28;;;;;;;6.85;4.55;;;;;;;6.88;82.51;101381.84;4845556;29;20125;-77
2022/04/26 03:41:53;;;;;;;4.97;3.10;;;;;;;6.88;82.04;101389.88;4847662;29;20033;-77
2022/04/26 03:44:19;;;;;;;8.63;3.58;;;;;;;6.83;83.05;101388.47;4849076;29;20033;-76
2022/04/26 03:46:44;;;;;;;7.70;4.20;;;;;;;6.81;82.46;101385.06;4825433;29;20033;-76
2022/04/26 03:49:10;;;;;;;7.03;3.72;;;;;;;6.85;82.63;101393.66;4824853;29;20060;-76
2022/04/26 03:51:36;;;;;;;4.50;3.25;;;;;;;6.85;83.07;101388.31;4854915;29;20045;-76
2022/04/26 03:54:01;;;;;;;5.80;3.28;;;;;;;6.78;82.77;101385.34;4838076;29;20033;-76
2022/04/26 03:56:27;;;;;;;7.63;3.75;;;;;;;6.89;82.84;101387.06;4827148;29;20065;-76
2022/04/26 03:58:53;;;;;;;8.07;4.05;;;;;;;6.70;83.16;101369.16;4827953;29;20072;-76
2022/04/26 04:01:18;;;;;;;4.30;3.28;;;;;;;6.82;83.06;101384.09;4855035;29;20090;-76
2022/04/26 04:03:44;;;;;;;5.20;3.15;;;;;;;6.76;83.65;101389.97;4838118;29;20511;-76
2022/04/26 04:06:09;;;;;;;5.65;3.65;;;;;;;6.72;83.94;101380.56;4840305;29;20037;-76
2022/04/26 04:08:35;;;;;;;5.20;3.40;;;;;;;6.70;84.34;101384.34;4823583;29;20033;-76
2022/04/26 04:11:00;;;;;;;7.45;4.05;;;;;;;6.56;84.87;101366.84;4821643;29;20051;-76
2022/04/26 04:13:26;;;;;;;7.30;3.97;;;;;;;6.67;84.37;101381.91;4851627;29;21422;-77
2022/04/26 04:15:51;;;;;;;10.57;4.45;;;;;;;6.65;84.92;101386.56;4850074;29;20145;-76
2022/04/26 04:21:01;;;;;;;7.50;3.60;;;;;;;6.70;84.88;101387.03;4848160;29;20452;-76
2022/04/26 04:23:27;;;;;;;5.57;4.38;;;;;;;6.74;84.72;101389.25;4856282;29;20040;-77
2022/04/26 04:25:52;;;;;;;20.92;4.70;;;;;;;6.78;84.34;101384.50;4821260;29;20097;-76
2022/04/26 04:28:18;;;;;;;11.95;5.80;;;;;;;6.80;84.47;101385.19;4840152;29;20033;-76
2022/04/26 04:30:44;;;;;;;7.55;4.38;;;;;;;6.64;84.72;101374.19;4820720;29;20045;-76
2022/04/26 04:33:09;;;;;;;10.05;5.20;;;;;;;6.52;86.12;101374.28;4853633;29;20033;-76
2022/04/26 04:35:35;;;;;;;4.63;3.45;;;;;;;6.62;85.85;101397.53;4824894;29;20416;-77
2022/04/26 04:38:00;;;;;;;6.47;4.07;;;;;;;6.57;86.53;101390.75;4852128;29;20037;-76
2022/04/26 04:40:26;;;;;;;10.98;5.55;;;;;;;6.51;87.28;101398.44;4857717;29;20132;-76
2022/04/26 04:42:51;;;;;;;10.00;4.85;;;;;;;6.42;87.67;101381.41;4829029;29;20037;-76
2022/04/26 04:45:17;;;;;;;11.40;5.20;;;;;;;6.40;88.35;101391.38;4851898;29;20025;-76
2022/04/26 04:47:43;;;;;;;8.50;5.00;;;;;;;6.39;88.51;101400.38;4828213;29;20030;-77
2022/04/26 04:50:10;;;;;;;8.30;5.07;;;;;;;6.35;89.11;101405.16;4856019;29;20456;-77
2022/04/26 04:52:36;;;;;;;8.90;4.30;;;;;;;6.30;89.82;101395.84;4819545;29;20029;-76
2022/04/26 04:55:02;;;;;;;9.93;5.57;;;;;;;6.27;90.02;101388.06;4852532;29;20048;-76
2022/04/26 04:57:28;;;;;;;8.45;5.03;;;;;;;6.38;89.54;101409.38;4856858;29;20026;-75
2022/04/26 04:59:53;;;;;;;8.57;5.22;;;;;;;6.38;89.52;101409.38;4825058;29;20040;-76
2022/04/26 05:02:19;;;;;;;9.70;5.55;;;;;;;6.32;90.14;101404.53;4853083;29;20119;-76
2022/04/26 05:04:47;;;;;;;11.52;4.65;;;;;;;6.26;90.69;101413.09;4852645;29;20116;-76
2022/04/26 05:07:12;;;;;;;11.60;5.88;;;;;;;6.21;91.27;101412.63;4825430;29;20033;-77
2022/04/26 05:09:38;;;;;;;11.63;5.93;;;;;;;6.09;91.63;101410.06;4839300;29;20357;-77
2022/04/26 05:12:04;;;;;;;12.70;5.28;;;;;;;6.09;91.52;101417.22;4818891;29;20491;-76
2022/04/26 05:14:30;;;;;;;12.77;5.20;;;;;;;6.11;92.18;101412.56;4828597;29;20041;-77
2022/04/26 05:16:56;;;;;;;10.30;6.60;;;;;;;6.15;91.54;101409.50;4854572;29;20034;-78
2022/04/26 05:19:21;;;;;;;8.40;4.13;;;;;;;6.16;91.93;101418.38;4854467;29;20039;-78
2022/04/26 05:21:47;;;;;;;9.63;5.65;;;;;;;6.11;91.78;101423.25;4822275;29;20033;-77
2022/04/26 05:26:57;;;;;;;14.25;6.50;;;;;;;6.07;92.29;101417.34;4838151;29;20029;-78
2022/04/26 05:29:22;;;;;;;15.93;6.60;;;;;;;6.12;92.70;101430.31;4850054;29;20077;-77
2022/04/26 05:31:48;;;;;;;12.55;5.45;;;;;;;6.12;91.97;101423.13;4822514;29;20044;-77
2022/04/26 05:34:14;;;;;;;10.80;6.28;;;;;;;6.13;92.55;101440.84;4854377;29;20057;-77
2022/04/26 05:36:39;;;;;;;7.10;3.97;;;;;;;6.11;92.81;101428.59;4834857;29;20037;-78
2022/04/26 05:39:05;;;;;;;8.38;4.80;;;;;;;6.12;92.38;101431.16;4839748;29;20037;-77
2022/04/26 05:41:30;;;;;;;9.05;4.82;;;;;;;6.19;91.78;101442.13;4846391;29;20097;-78
2022/04/26 05:43:56;;;;;;;10.15;5.82;;;;;;;6.15;91.74;101441.56;4846487;29;20073;-76
2022/04/26 05:46:22;;;;;;;8.23;4.65;;;;;;;6.16;91.92;101443.25;4816931;29;20066;-77
2022/04/26 05:48:47;;;;;;;14.75;6.53;;;;;;;6.15;92.14;101443.38;4830162;29;20121;-78
2022/04/26 05:51:13;;;;;;;11.57;6.30;;;;;;;6.22;91.40;101443.69;4837187;29;20121;-77
2022/04/26 05:53:38;;;;;;;11.55;6.80;;;;;;;6.14;91.70;101431.88;4822579;29;20045;-77
2022/04/26 05:56:05;;;;;;;9.25;5.28;;;;;;;6.25;90.70;101435.44;4821592;29;20368;-76
2022/04/26 05:58:31;;;;;;;7.32;5.13;;;;;;;6.30;90.92;101435.91;4826112;29;20501;-77
2022/04/26 06:00:57;;;;;;;10.88;5.50;;;;;;;6.27;90.96;101430.78;4852571;29;20077;-78
2022/04/26 06:03:23;;;;;;;11.68;5.97;;;;;;;6.22;90.68;101419.66;4834468;29;20041;-77
2022/04/26 06:05:48;;;;;;;10.50;4.80;;;;;;;6.35;90.26;101439.00;4853549;29;20403;-76
2022/04/26 06:08:14;;;;;;;9.35;4.20;;;;;;;6.39;89.79;101433.28;4851309;29;20113;-77
2022/04/26 06:10:40;;;;;;;14.25;6.68;;;;;;;6.43;89.58;101433.00;4829892;29;20034;-76
2022/04/26 06:13:05;;;;;;;16.38;6.38;;;;;;;6.47;89.02;101443.28;4822038;29;20034;-77
2022/04/26 06:15:31;;;;;;;10.95;5.30;;;;;;;6.53;88.34;101444.59;4848908;29;20487;-76
2022/04/26 06:17:57;;;;;;;7.10;3.83;;;;;;;6.63;87.69;101440.16;4819157;29;20056;-77
2022/04/26 06:20:24;;;;;;;17.48;5.50;;;;;;;6.68;86.90;101443.25;4856125;29;20045;-77
2022/04/26 06:22:50;;;;;;;10.80;4.75;;;;;;;6.73;86.97;101440.19;4851153;29;20037;-77
2022/04/26 06:25:16;;;;;;;8.85;4.80;;;;;;;6.81;86.76;101454.56;4853216;29;20037;-78
2022/04/26 06:27:42;;;;;;;13.85;6.30;;;;;;;6.85;85.60;101452.47;4835719;29;20479;-76
2022/04/26 06:30:11;;;;;;;14.18;4.93;;;;;;;6.95;84.88;101464.06;4819526;29;20041;-77
2022/04/26 06:32:37;;;;;;;10.68;5.07;;;;;;;6.98;84.98;101466.44;4850852;29;20056;-76
2022/04/26 06:35:03;;;;;;;8.23;4.35;;;;;;;7.00;84.85;101464.50;4854238;29;20045;-77
2022/04/26 06:37:29;;;;;;;10.35;5.38;;;;;;;7.03;84.94;101469.56;4820521;29;20129;-77
2022/04/26 06:39:55;;;;;;;10.38;4.55;;;;;;;7.10;84.55;101469.03;4846561;29;20081;-77
2022/04/26 06:42:20;;;;;;;8.38;5.40;;;;;;;7.11;84.27;101462.69;4845099;29;20093;-76
2022/04/26 06:44:46;;;;;;;9.70;5.28;;;;;;;7.14;83.74;101457.06;4822620;29;20035;-77
2022/04/26 06:47:12;;;;;;;13.32;5.60;;;;;;;7.29;83.13;101473.59;4847692;29;20399;-77
2022/04/26 06:49:37;;;;;;;6.95;3.38;;;;;;;7.35;81.88;101465.84;4847185;29;20479;-77
2022/04/26 06:52:03;;;;;;;11.38;4.45;;;;;;;7.42;82.30;101475.03;4843863;29;20034;-78
2022/04/26 06:54:29;;;;;;;9.60;5.85;;;;;;;7.58;80.64;101473.66;4845996;29;20029;-77
2022/04/26 06:56:54;;;;;;;13.10;4.97;;;;;;;7.67;80.59;101475.50;4857427;29;20045;-77
2022/04/26 06:59:20;;;;;;;9.38;3.25;;;;;;;7.70;80.53;101469.88;4853326;29;20033;-78
2022/04/26 07:01:52;;;;;;;10.03;5.10;;;;;;;7.70;80.36;101472.56;4847402;29;20041;-77
2022/04/26 07:04:18;;;;;;;6.97;3.85;;;;;;;7.80;80.52;101485.94;4836324;29;20121;-78
2022/04/26 07:06:45;;;;;;;7.35;4.95;;;;;;;7.83;78.86;101462.41;4840905;29;20026;-77
2022/04/26 07:09:10;;;;;;;12.63;5.13;;;;;;;7.97;79.21;101476.38;4831553;29;21867;-79
2022/04/26 07:11:36;;;;;;;9.60;5.07;;;;;;;8.15;78.40;101482.72;4845439;29;20045;-79
2022/04/26 07:14:02;;;;;;;12.85;4.75;;;;;;;8.23;77.75;101480.16;4842564;29;20101;-79
2022/04/26 07:16:27;;;;;;;8.25;4.72;;;;;;;8.25;78.45;101475.47;4853135;29;20029;-78
2022/04/26 07:18:53;;;;;;;6.22;4.00;;;;;;;8.40;77.59;101480.44;4820682;29;20582;-76
2022/04/26 07:21:19;;;;;;;14.98;6.80;;;;;;;8.39;77.35;101479.59;4853039;29;20029;-78
2022/04/26 07:23:45;;;;;;;11.23;5.55;;;;;;;8.47;77.95;101486.94;4843561;29;20486;-77
2022/04/26 07:26:10;;;;;;;14.00;5.50;;;;;;;8.59;76.77;101493.78;4863235;29;20045;-77
2022/04/26 07:28:36;;;;;;;10.40;4.85;;;;;;;8.66;76.53;101492.22;4835771;29;20045;-78
2022/04/26 07:31:01;;;;;;;12.75;6.75;;;;;;;8.80;76.89;101493.59;4832401;29;20052;-76
2022/04/26 07:36:11;;;;;;;10.75;5.53;;;;;;;9.01;74.54;101496.91;4851113;29;20041;-82
2022/04/26 07:38:37;;;;;;;6.03;4.28;;;;;;;9.20;74.44;101497.81;4830002;29;20042;-81
2022/04/26 07:41:03;;;;;;;13.18;6.38;;;;;;;9.32;72.71;101510.03;4839940;29;20054;-81
2022/04/26 07:43:29;;;;;;;12.40;5.43;;;;;;;9.35;72.35;101498.16;4837223;29;20074;-82
2022/04/26 07:45:54;;;;;;;11.85;6.60;;;;;;;9.44;73.14;101508.81;4820632;29;20041;-81
2022/04/26 07:48:24;;;;;;;17.80;6.35;;;;;;;9.49;72.30;101488.75;4826252;29;20384;-81
2022/04/26 07:50:51;;;;;;;8.45;4.32;;;;;;;9.76;70.80;101512.03;4838976;29;20414;-80
2022/04/26 07:53:17;;;;;;;7.43;4.50;;;;;;;9.89;69.68;101512.50;4861003;29;20546;-81
2022/04/26 07:55:42;;;;;;;10.30;5.47;;;;;;;9.95;68.69;101511.03;4839083;29;20149;-81
2022/04/26 07:58:08;;;;;;;10.25;5.60;;;;;;;10.13;69.85;101512.75;4843835;29;20049;-80
2022/04/26 08:00:35;;;;;;;13.48;6.30;;;;;;;10.28;67.03;101514.91;4858580;29;20137;-81
2022/04/26 08:03:02;;;;;;;13.80;6.43;;;;;;;10.48;67.38;101519.09;4859339;29;20679;-81
2022/04/26 08:05:30;;;;;;;10.85;4.72;;;;;;;10.66;65.56;101516.34;4841785;29;20069;-81
2022/04/26 08:07:56;;;;;;;8.57;4.65;;;;;;;10.78;66.38;101516.94;4860343;29;20490;-82
2022/04/26 08:10:22;;;;;;;13.95;5.72;;;;;;;11.04;64.44;101525.00;4848651;29;20037;-81
2022/04/26 08:12:55;;;;;;;10.85;4.78;;;;;;;11.13;64.12;101523.19;4833379;29;20033;-81
2022/04/26 08:15:24;;;;;;;14.57;6.22;;;;;;;11.21;64.38;101516.00;4828171;29;20041;-82
2022/04/26 08:17:49;;;;;;;12.23;5.40;;;;;;;11.49;63.49;101514.94;4808949;29;20037;-82
2022/04/26 08:20:16;;;;;;;6.93;4.20;;;;;;;11.67;61.19;101499.50;4855722;29;20033;-80
2022/04/26 08:22:43;;;;;;;9.40;4.93;;;;;;;11.85;60.72;101511.00;4860321;29;20037;-82
2022/04/26 08:27:53;;;;;;;8.05;4.68;;;;;;;12.15;58.97;101508.69;4848583;29;20041;-81
2022/04/26 08:30:19;;;;;;;8.43;5.35;;;;;;;12.42;58.46;101504.81;4826744;29;20037;-81
2022/04/26 08:32:48;;;;;;;11.00;6.15;;;;;;;12.73;58.87;101523.84;4856604;29;20108;-81
2022/04/26 08:35:18;;;;;;;6.90;4.82;;;;;;;13.03;56.86;101516.00;4833775;29;20483;-82
2022/04/26 08:37:44;;;;;;;12.48;5.30;;;;;;;13.28;56.27;101524.03;4843271;29;20388;-82
2022/04/26 08:40:10;;;;;;;14.18;5.38;;;;;;;13.93;53.81;101531.81;4841397;29;20037;-81
2022/04/26 08:42:44;;;;;;;12.13;6.22;;;;;;;14.36;52.19;101526.75;4822468;29;20042;-81
2022/04/26 08:45:15;;;;;;;9.45;5.70;;;;;;;14.78;50.45;101536.22;4833521;29;20095;-82
2022/04/26 08:53:20;;;;;;;8.27;4.30;;;;;;;15.32;48.67;101543.22;4847027;29;20045;-82
2022/04/26 08:55:48;;;;;;;6.47;4.47;;;;;;;15.58;49.12;101542.75;4857655;29;20033;-82
2022/04/26 08:58:18;;;;;;;12.07;5.90;;;;;;;15.93;49.11;101534.81;4821877;29;21307;-82
2022/04/26 09:01:06;;;;;;;8.20;4.78;;;;;;;15.97;47.27;101550.53;4851938;29;20484;-82
2022/04/26 09:03:46;;;;;;;6.97;4.47;;;;;;;15.85;46.58;101548.50;4852766;29;20045;-82
2022/04/26 09:06:15;;;;;;;13.38;7.22;;;;;;;15.57;47.95;101543.78;4843467;29;20380;-81
2022/04/26 09:08:43;;;;;;;8.77;4.55;;;;;;;15.46;47.53;101541.56;4852484;29;20044;-82
2022/04/26 09:11:24;;;;;;;7.30;4.15;;;;;;;15.33;47.16;101544.94;4841789;29;20056;-81
2022/04/26 09:13:50;;;;;;;10.02;6.03;;;;;;;15.42;47.16;101546.50;4835797;29;20030;-81
2022/04/26 09:16:20;;;;;;;10.10;5.22;;;;;;;15.43;48.80;101545.50;4858014;29;20037;-81
2022/04/26 09:18:55;;;;;;;8.13;4.80;;;;;;;15.72;47.35;101514.81;4839633;29;20136;-82
2022/04/26 09:21:27;;;;;;;10.27;4.97;;;;;;;15.99;46.06;101540.34;4856464;29;20601;-81
2022/04/26 09:23:57;;;;;;;8.40;5.28;;;;;;;16.23;45.71;101558.09;4845344;29;20034;-80
2022/04/26 09:26:36;;;;;;;11.75;6.32;;;;;;;16.50;45.54;101550.22;4824120;29;20045;-78
2022/04/26 09:29:03;;;;;;;9.20;4.15;;;;;;;16.90;44.40;101545.94;4843469;29;20045;-77
2022/04/26 09:31:30;;;;;;;7.82;4.80;;;;;;;17.04;43.21;101551.47;4843564;29;20115;-77
2022/04/26 09:34:06;;;;;;;5.63;4.03;;;;;;;17.14;41.73;101544.63;4847406;29;20035;-76
2022/04/26 09:36:42;;;;;;;9.18;4.78;;;;;;;17.30;42.30;101562.50;4838212;29;20038;-77
2022/04/26 09:39:11;;;;;;;9.43;4.95;;;;;;;18.19;41.60;101552.63;4826195;29;20049;-77
2022/04/26 09:41:38;;;;;;;9.23;4.47;;;;;;;18.46;40.16;101570.63;4865149;29;20097;-77
2022/04/26 09:44:05;;;;;;;6.97;4.70;;;;;;;18.68;38.95;101570.44;4868407;29;20065;-76
2022/04/26 09:46:43;;;;;;;8.43;4.70;;;;;;;18.62;38.11;101574.84;4854518;29;20050;-77
2022/04/26 09:49:14;;;;;;;11.23;6.38;;;;;;;18.60;38.23;101562.47;4834514;29;20090;-77
2022/04/26 09:51:41;;;;;;;7.47;4.57;;;;;;;19.07;38.54;101574.22;4829098;29;20046;-77
2022/04/26 09:54:09;;;;;;;7.25;5.22;;;;;;;19.86;37.45;101570.41;4861912;29;20037;-77
2022/04/26 09:56:35;;;;;;;6.78;4.72;;;;;;;20.94;36.08;101568.63;4856687;29;20439;-77
2022/04/26 09:59:03;;;;;;;8.88;5.32;;;;;;;23.03;32.11;101565.38;4835284;29;20041;-77
2022/04/26 10:01:39;;;;;;;8.90;4.82;;;;;;;22.64;33.04;101575.09;4819429;29;20109;-77
2022/04/26 10:04:11;;;;;;;8.15;4.55;;;;;;;24.67;28.47;101571.38;4822829;29;20038;-76
2022/04/26 10:06:38;;;;;;;7.07;4.23;;;;;;;24.76;28.38;101576.19;4846558;29;20045;-77
2022/04/26 10:09:06;;;;;;;6.85;5.10;;;;;;;24.86;29.81;101581.03;4823369;29;20357;-78
2022/04/26 10:11:32;;;;;;;10.27;5.55;;;;;;;25.55;28.01;101583.41;4843312;29;20038;-76
2022/04/26 10:14:00;;;;;;;6.22;5.05;;;;;;;26.01;27.93;101572.97;4840086;29;20046;-78
2022/04/26 10:16:27;;;;;;;7.85;5.07;;;;;;;26.24;26.67;101573.72;4853927;29;20037;-77
2022/04/26 10:19:01;;;;;;;7.75;4.45;;;;;;;26.15;25.99;101573.38;4856412;29;20112;-77
2022/04/26 10:21:27;;;;;;;8.63;5.13;;;;;;;25.74;26.67;101575.63;4840726;29;20065;-78
2022/04/26 10:23:56;;;;;;;13.93;6.00;;;;;;;25.67;26.41;101578.59;4861078;29;20045;-77
2022/04/26 10:26:27;;;;;;;7.97;5.10;;;;;;;25.78;26.17;101576.81;4840301;29;20493;-77
2022/04/26 10:29:01;;;;;;;11.30;5.32;;;;;;;24.76;28.41;101575.38;4858644;29;20090;-77
2022/04/26 10:31:38;;;;;;;8.48;5.45;;;;;;;25.21;28.64;101579.91;4823400;29;20057;-77
2022/04/26 10:34:29;;;;;;;9.30;6.28;;;;;;;25.45;27.70;101566.75;4854210;29;20108;-79
2022/04/26 10:37:00;;;;;;;6.07;4.57;;;;;;;25.97;26.46;101569.03;4861193;29;20041;-78
2022/04/26 10:39:30;;;;;;;5.78;3.80;;;;;;;25.98;26.27;101570.69;4839630;29;20029;-78
2022/04/26 10:41:56;;;;;;;6.05;4.80;;;;;;;25.79;27.91;101561.94;4854430;29;20128;-78
2022/04/26 10:44:23;;;;;;;8.48;5.38;;;;;;;26.31;26.35;101569.66;4848783;29;20494;-79
2022/04/26 10:47:02;;;;;;;8.57;5.32;;;;;;;26.57;27.77;101571.81;4844596;29;20417;-78
2022/04/26 10:49:35;;;;;;;11.52;5.05;;;;;;;27.22;25.05;101572.59;4831512;29;20037;-79
2022/04/26 10:52:25;;;;;;;10.23;6.03;;;;;;;27.88;22.89;101570.13;4859839;29;20076;-79
2022/04/26 10:54:58;;;;;;;9.55;5.32;;;;;;;28.79;23.06;101567.72;4857249;29;20056;-78
2022/04/26 10:57:26;;;;;;;11.23;6.25;;;;;;;29.44;21.28;101559.56;4853098;29;20037;-78
2022/04/26 10:59:56;;;;;;;14.55;7.30;;;;;;;26.22;25.08;101565.69;4858494;29;20030;-78
2022/04/26 11:02:23;;;;;;;9.43;5.47;;;;;;;23.94;28.39;101573.06;4847782;29;20044;-78
2022/04/26 11:04:56;;;;;;;5.10;3.38;;;;;;;22.75;27.96;101561.41;4827818;29;20048;-78
2022/04/26 11:07:25;;;;;;;;;;;;;;;21.46;31.50;101572.72;4855965;29;20056;-78
2022/04/26 11:09:53;;;;;;;10.38;4.07;;;;;;;21.21;32.51;101577.41;4832776;29;19979;-79
2022/04/26 11:12:29;;;;;;;6.80;3.67;;;;;;;20.69;32.94;101568.63;4827177;29;20033;-78
2022/04/26 11:14:57;;;;;;;11.77;4.65;;;;;;;20.18;34.49;101571.28;4836792;29;20030;-78
2022/04/26 11:17:24;;;;;;;6.00;4.20;;;;;;;19.53;34.55;101574.09;4836266;29;20121;-77
2022/04/26 11:20:20;;;;;;;5.38;3.83;;;;;;;19.28;36.77;101568.50;4852324;29;20045;-80
2022/04/26 11:22:53;;;;;;;10.80;5.30;;;;;;;22.66;31.07;101568.31;4845597;29;20045;-81
2022/04/26 11:28:10;;;;;;;10.10;4.63;;;;;;;27.24;25.70;101578.69;4852815;29;20056;-81
2022/04/26 11:30:43;;;;;;;6.55;3.72;;;;;;;24.01;27.91;101566.34;4817212;29;20057;-80
2022/04/26 11:33:15;;;;;;;7.43;4.32;;;;;;;21.51;31.26;101570.16;4834155;29;20052;-81
2022/04/26 11:35:42;;;;;;;6.83;3.67;;;;;;;20.58;33.53;101570.19;4835508;29;20429;-79
2022/04/26 11:38:16;;;;;;;42.35;8.15;;;;;;;19.91;34.18;101564.31;4839736;29;20048;-82
2022/04/26 11:40:54;;;;;;;9.35;4.18;;;;;;;19.29;35.88;101559.28;4849200;29;20029;-81
2022/04/26 11:43:22;;;;;;;4.97;3.25;;;;;;;18.84;34.40;101567.34;4816156;29;20044;-80
2022/04/26 11:45:50;;;;;;;9.18;3.90;;;;;;;18.27;35.60;101568.75;4836549;29;20037;-81
2022/04/26 11:48:21;;;;;;;5.55;3.45;;;;;;;17.93;37.67;101570.53;4852026;29;20116;-84
2022/04/26 11:50:48;;;;;;;5.28;3.35;;;;;;;17.57;35.44;101573.50;4836190;29;20475;-81
2022/04/26 11:53:15;;;;;;;6.60;3.88;;;;;;;17.37;38.11;101581.56;4846029;29;20048;-80
2022/04/26 11:55:45;;;;;;;8.75;3.70;;;;;;;17.28;37.61;101585.47;4836005;29;20396;-81
2022/04/26 11:58:29;;;;;;;6.22;3.60;;;;;;;17.04;37.88;101574.06;4838564;29;20608;-78
2022/04/26 12:01:02;;;;;;;9.30;3.25;;;;;;;16.97;38.59;101586.75;4848076;29;20038;-80
2022/04/26 12:03:30;;;;;;;4.82;2.80;;;;;;;17.10;38.75;101594.19;4838737;29;20038;-81
2022/04/26 12:06:02;;;;;;;3.78;2.83;;;;;;;16.90;37.95;101578.53;4856978;29;20041;-81
2022/04/26 12:08:29;;;;;;;4.95;3.45;;;;;;;16.87;39.45;101586.25;4816726;29;20079;-79
2022/04/26 12:11:12;;;;;;;7.38;3.20;;;;;;;16.90;39.04;101594.00;4822687;29;20137;-80
2022/04/26 12:13:38;;;;;;;3.58;2.58;;;;;;;17.08;37.42;101582.66;4816621;29;20046;-80
2022/04/26 12:16:17;;;;;;;4.93;3.20;;;;;;;17.18;37.33;101582.31;4855882;29;20037;-80
2022/04/26 12:18:56;;;;;;;5.60;3.60;;;;;;;17.29;37.82;101592.63;4824573;29;20048;-81
2022/04/26 12:21:26;;;;;;;5.35;3.40;;;;;;;17.21;37.97;101588.19;4842146;29;20492;-80
2022/04/26 12:24:21;;;;;;;9.07;3.22;;;;;;;17.14;38.35;101585.41;4838780;29;20071;-81
2022/04/26 12:26:51;;;;;;;5.63;3.50;;;;;;;17.00;40.82;101602.66;4826273;29;20034;-81
2022/04/26 12:29:16;;;;;;;5.68;3.22;;;;;;;16.76;40.19;101568.59;4846032;29;20029;-80
2022/04/26 12:31:47;;;;;;;5.13;3.38;;;;;;;16.57;40.69;101585.56;4851890;29;20034;-81
2022/04/26 12:34:21;;;;;;;3.78;3.00;;;;;;;16.40;40.79;101590.41;4839272;29;20037;-82
2022/04/26 12:36:51;;;;;;;;;;;;;;;16.06;41.91;101597.34;4847839;29;20117;-79
2022/04/26 12:39:18;;;;;;;5.32;4.07;;;;;;;15.80;43.45;101596.03;4818477;29;19921;-80
2022/04/26 12:41:55;;;;;;;5.47;3.22;;;;;;;15.79;43.24;101602.47;4836932;29;20484;-81
2022/04/26 12:44:21;;;;;;;7.32;3.95;;;;;;;15.77;43.83;101596.41;4854390;29;20038;-80
2022/04/26 12:52:51;;;;;;;11.98;6.30;;;;;;;15.82;44.02;101606.69;4858064;29;20033;-80
2022/04/26 12:55:31;;;;;;;10.70;6.70;;;;;;;15.76;44.60;101612.88;4859445;29;20033;-81
2022/04/26 12:57:59;;;;;;;13.68;7.10;;;;;;;15.65;45.13;101608.72;4846800;29;20098;-81
2022/04/26 13:00:26;;;;;;;9.43;7.07;;;;;;;15.67;45.92;101609.41;4816619;29;20481;-82
2022/04/26 13:02:53;;;;;;;9.57;6.25;;;;;;;15.68;45.91;101615.66;4845666;29;20042;-82
2022/04/26 13:05:20;;;;;;;9.68;7.07;;;;;;;15.67;46.84;101606.69;4840331;29;20131;-83
2022/04/26 13:07:47;;;;;;;15.07;6.47;;;;;;;15.76;46.41;101613.69;4836530;29;20042;-84
2022/04/26 13:10:19;;;;;;;13.82;6.78;;;;;;;15.78;46.70;101613.53;4858144;29;20033;-84
2022/04/26 13:12:44;;;;;;;9.57;5.40;;;;;;;15.77;46.63;101611.81;4824135;29;20128;-82
2022/04/26 13:15:11;;;;;;;11.15;6.13;;;;;;;15.67;46.86;101603.97;4852523;29;20502;-82
2022/04/26 13:17:39;;;;;;;9.30;6.70;;;;;;;15.75;47.45;101614.75;4828863;29;20052;-82
2022/04/26 13:20:07;;;;;;;12.60;7.03;;;;;;;15.90;48.20;101624.72;4837537;29;20619;-84
2022/04/26 13:22:34;;;;;;;12.30;6.75;;;;;;;15.95;47.14;101617.69;4834158;29;20038;-82
2022/04/26 13:25:04;;;;;;;25.00;16.05;;;;;;;16.13;47.24;101621.88;4826904;29;20045;-81
2022/04/26 13:27:33;;;;;;;10.07;6.70;;;;;;;16.39;46.10;101613.16;4853210;29;20037;-82
2022/04/26 13:29:59;;;;;;;11.55;7.20;;;;;;;16.70;45.42;101619.13;4855431;29;20026;-81
2022/04/26 13:32:25;;;;;;;10.18;7.75;;;;;;;16.73;44.23;101585.28;4830730;29;20051;-77
2022/04/26 13:34:54;;;;;;;12.32;7.15;;;;;;;17.08;43.61;101617.97;4855428;29;20112;-78
2022/04/26 13:37:21;;;;;;;9.10;6.85;;;;;;;17.19;43.21;101613.88;4837705;29;20223;-79
2022/04/26 13:39:49;;;;;;;8.85;6.60;;;;;;;17.26;42.85;101614.75;4849654;29;20157;-78
2022/04/26 13:42:15;;;;;;;8.82;6.13;;;;;;;17.42;43.20;101621.75;4840898;29;20190;-79
2022/04/26 13:44:42;;;;;;;9.07;6.15;;;;;;;17.72;43.06;101619.63;4833339;29;20054;-77
2022/04/26 13:47:08;;;;;;;8.73;5.95;;;;;;;17.80;42.33;101608.59;4862394;29;20118;-78
2022/04/26 13:49:35;;;;;;;6.20;5.10;;;;;;;17.85;40.93;101611.53;4822772;29;20040;-78
2022/04/26 13:52:02;;;;;;;7.40;5.18;;;;;;;17.80;40.71;101612.13;4836891;29;20063;-78
2022/04/26 13:54:28;;;;;;;8.35;5.65;;;;;;;17.82;40.72;101601.06;4824235;29;20133;-78
2022/04/26 13:56:54;;;;;;;13.75;7.22;;;;;;;17.88;40.44;101594.81;4856477;29;20128;-77
2022/04/26 13:59:22;;;;;;;7.65;5.55;;;;;;;18.12;40.80;101596.13;4864089;29;20041;-77
2022/04/26 14:01:52;;;;;;;9.23;5.95;;;;;;;18.47;40.59;101615.06;4826764;29;20141;-79
2022/04/26 14:04:18;;;;;;;7.13;5.28;;;;;;;18.56;40.10;101611.09;4846435;29;20044;-77
2022/04/26 14:06:44;;;;;;;8.13;5.25;;;;;;;18.60;39.78;101606.06;4860913;29;20034;-78
2022/04/26 14:09:10;;;;;;;13.40;5.88;;;;;;;18.57;39.74;101579.25;4836864;29;20030;-78
2022/04/26 14:11:35;;;;;;;11.20;5.10;;;;;;;18.79;39.36;101599.00;4824259;29;20060;-77
2022/04/26 14:22:16;;;;;;;9.60;5.63;;;;;;;19.66;38.82;101589.63;4857524;29;20033;-78
2022/04/26 14:24:42;;;;;;;8.57;5.50;;;;;;;20.17;36.75;101583.28;4824217;29;20052;-77
2022/04/26 14:27:08;;;;;;;8.82;6.10;;;;;;;21.00;35.92;101587.69;4852982;29;20540;-77
2022/04/26 14:29:34;;;;;;;10.48;7.13;;;;;;;21.56;34.17;101563.13;4844631;29;20045;-77
2022/04/26 14:32:00;;;;;;;7.15;4.70;;;;;;;21.97;33.11;101586.22;4847302;29;20026;-76
2022/04/26 14:34:25;;;;;;;10.07;5.03;;;;;;;21.46;34.32;101580.94;4872307;29;20043;-77
2022/04/26 14:36:51;;;;;;;10.38;5.85;;;;;;;21.16;34.82;101578.06;4877100;29;20056;-78
2022/04/26 14:39:17;;;;;;;11.00;8.02;;;;;;;20.95;34.49;101579.31;4855681;29;20029;-77
2022/04/26 14:41:43;;;;;;;15.35;10.05;;;;;;;20.97;36.05;101581.84;4824315;29;20102;-77
2022/04/26 14:44:08;;;;;;;9.80;5.40;;;;;;;20.69;34.93;101579.56;4857956;29;20377;-77
2022/04/26 14:46:35;;;;;;;19.15;13.10;;;;;;;20.52;36.13;101577.34;4856065;29;20591;-77
2022/04/26 14:49:01;;;;;;;10.60;6.90;;;;;;;20.26;34.81;101569.34;4827561;29;20540;-76
2022/04/26 14:51:26;;;;;;;8.55;6.38;;;;;;;20.54;34.25;101567.06;4859734;29;20060;-77
2022/04/26 14:53:52;;;;;;;11.57;8.32;;;;;;;20.56;35.13;101567.69;4859105;29;20464;-77
2022/04/26 14:56:17;;;;;;;10.25;7.20;;;;;;;20.40;34.76;101566.31;4844706;29;20529;-76
2022/04/26 14:58:43;;;;;;;16.17;9.18;;;;;;;20.26;35.95;101575.66;4827336;29;20056;-79
2022/04/26 15:01:10;;;;;;;13.27;7.40;;;;;;;19.97;35.55;101555.25;4826060;29;20467;-78
2022/04/26 15:03:36;;;;;;;13.93;8.80;;;;;;;19.97;36.98;101580.63;4852094;29;20061;-78
2022/04/26 15:06:01;;;;;;;7.20;5.70;;;;;;;19.91;36.53;101576.06;4856300;29;20056;-78
2022/04/26 15:11:11;;;;;;;8.27;6.50;;;;;;;19.72;36.10;101571.56;4845536;29;20072;-77
2022/04/26 15:16:39;;;;;;;10.68;6.07;;;;;;;19.56;36.31;101575.56;4857166;29;20105;-76
2022/04/26 15:19:10;;;;;;;7.90;5.95;;;;;;;19.64;36.39;101588.13;4840035;29;20080;-78
2022/04/26 15:21:37;;;;;;;8.68;5.68;;;;;;;19.52;36.64;101587.94;4814496;29;20125;-77
2022/04/26 15:24:04;;;;;;;7.38;5.50;;;;;;;19.43;37.21;101587.34;4855499;29;20057;-79
2022/04/26 15:26:30;;;;;;;8.77;5.28;;;;;;;19.36;36.74;101586.53;4822810;29;20122;-76
2022/04/26 15:28:58;;;;;;;8.55;4.78;;;;;;;19.25;37.09;101593.47;4829923;29;20711;-78
2022/04/26 15:31:35;;;;;;;6.75;3.85;;;;;;;19.11;35.89;101589.94;4832507;29;20372;-77
2022/04/26 15:34:02;;;;;;;7.47;4.18;;;;;;;19.05;36.61;101589.94;4834909;29;20060;-77
2022/04/26 15:36:30;;;;;;;8.10;4.90;;;;;;;18.73;36.87;101587.00;4853862;29;20036;-76
2022/04/26 15:38:58;;;;;;;5.57;4.70;;;;;;;18.57;36.41;101593.69;4842003;29;20384;-77
2022/04/26 15:41:27;;;;;;;6.53;4.32;;;;;;;18.37;36.90;101579.25;4849751;29;20045;-76
2022/04/26 15:43:52;;;;;;;7.70;4.57;;;;;;;18.36;37.29;101597.44;4858416;29;20046;-78